Terminal Aerodrome Forecast
Issued by NWS Sioux Falls, SD

Home | Current Version | Previous Version | Graphics & Text | Print | Product List | Glossary On
Versions: 1 2 3 4 5 6 7 8 9 10 11 12 13 14 15 16
000
FTUS43 KFSD 170522
TAFSUX
TAF
KSUX 170522Z 1706/1806 29011KT P6SM SCT025 OVC050
     FM171000 30010KT P6SM SCT030
     FM171600 31015G23KT P6SM FEW120
     FM172300 32009KT P6SM SKC=

USA.gov is the U.S. government's official web portal to all federal, state and local government web resources and services.